createdAt,value
2015-11-19T00:00:06.888Z,19.87
2015-11-19T00:00:19.231Z,19.97
2015-11-19T00:00:31.594Z,19.97
2015-11-19T00:00:43.953Z,19.97
2015-11-19T00:00:56.312Z,19.68
2015-11-19T00:01:08.656Z,19.97
2015-11-19T00:01:21.000Z,19.87
2015-11-19T00:01:33.347Z,19.87
2015-11-19T00:01:45.706Z,19.87
2015-11-19T00:01:58.065Z,19.4
2015-11-19T00:02:10.409Z,19.77
2015-11-19T00:02:22.097Z,19.49
2015-11-19T00:02:34.490Z,19.4
2015-11-19T00:02:46.865Z,19.49
2015-11-19T00:02:59.240Z,19.3
2015-11-19T00:03:11.615Z,19.3
2015-11-19T00:03:23.990Z,19.49
2015-11-19T00:03:36.367Z,19.49
2015-11-19T00:03:48.727Z,19.3
2015-11-19T00:04:01.180Z,19.31
2015-11-19T00:04:13.524Z,19.58
2015-11-19T00:04:25.867Z,19.59
2015-11-19T00:04:38.214Z,19.49
2015-11-19T00:04:50.558Z,19.49
2015-11-19T00:05:02.995Z,19.49
2015-11-19T00:05:15.355Z,19.4
2015-11-19T00:05:27.698Z,19.4
2015-11-19T00:05:40.045Z,19.4
2015-11-19T00:05:52.405Z,19.4
2015-11-19T00:06:04.748Z,19.4
2015-11-19T00:06:17.139Z,19.4
2015-11-19T00:06:29.530Z,19.4
2015-11-19T00:06:41.875Z,19.4
2015-11-19T00:06:54.235Z,19.4
2015-11-19T00:07:06.578Z,19.4
2015-11-19T00:07:18.922Z,19.49
2015-11-19T00:07:31.266Z,19.49
2015-11-19T00:07:43.628Z,19.49
2015-11-19T00:07:56.050Z,19.59
2015-11-19T00:08:08.488Z,19.49
2015-11-19T00:08:20.847Z,19.49
2015-11-19T00:08:33.238Z,19.59
2015-11-19T00:08:45.616Z,19.59
2015-11-19T00:08:57.975Z,19.49
2015-11-19T00:09:10.334Z,19.59
2015-11-19T00:09:22.694Z,19.59
2015-11-19T00:09:35.038Z,19.49
2015-11-19T00:09:47.383Z,19.49
2015-11-19T00:09:59.727Z,19.4
2015-11-19T00:10:12.086Z,19.4
2015-11-19T00:10:24.446Z,19.49
2015-11-19T00:10:36.071Z,19.4
2015-11-19T00:10:48.418Z,19.31
2015-11-19T00:11:00.793Z,19.49
2015-11-19T00:11:13.121Z,19.97
2015-11-19T00:11:25.511Z,19.87
2015-11-19T00:11:37.230Z,20.06
2015-11-19T00:11:49.577Z,19.21
2015-11-19T00:12:01.967Z,19.87
2015-11-19T00:12:14.374Z,19.97
2015-11-19T00:12:26.749Z,19.97
2015-11-19T00:12:39.108Z,19.78
2015-11-19T00:12:51.486Z,19.4
2015-11-19T00:13:03.861Z,19.31
2015-11-19T00:13:16.236Z,19.4
2015-11-19T00:13:28.689Z,19.78
2015-11-19T00:13:41.064Z,19.78
2015-11-19T00:13:53.442Z,19.21
2015-11-19T00:14:05.833Z,19.59
2015-11-19T00:14:18.192Z,19.31
2015-11-19T00:14:30.536Z,19.12
2015-11-19T00:14:42.880Z,19.21
2015-11-19T00:14:55.225Z,19.21
2015-11-19T00:15:07.632Z,19.4
2015-11-19T00:15:20.022Z,19.31
2015-11-19T00:15:32.366Z,19.21
2015-11-19T00:15:44.710Z,19.68
2015-11-19T00:15:57.057Z,19.21
2015-11-19T00:16:09.400Z,19.31
2015-11-19T00:16:21.760Z,19.4
2015-11-19T00:16:34.166Z,19.12
2015-11-19T00:16:46.557Z,19.4
2015-11-19T00:16:58.919Z,19.4
2015-11-19T00:17:11.278Z,19.4
2015-11-19T00:17:23.638Z,19.78
2015-11-19T00:17:35.997Z,19.21
2015-11-19T00:17:48.356Z,19.78
2015-11-19T00:18:00.780Z,19.78
2015-11-19T00:18:13.171Z,19.78
2015-11-19T00:18:25.546Z,19.21
2015-11-19T00:18:37.937Z,19.78
2015-11-19T00:18:50.312Z,19.68
2015-11-19T00:19:02.706Z,19.78
2015-11-19T00:19:15.081Z,19.68
2015-11-19T00:19:27.519Z,19.78
2015-11-19T00:19:39.925Z,19.68
2015-11-19T00:19:52.269Z,19.78
2015-11-19T00:20:04.614Z,19.68
2015-11-19T00:20:16.802Z,19.78
2015-11-19T00:20:29.146Z,19.87
2015-11-19T00:20:41.489Z,19.68
2015-11-19T00:20:53.849Z,19.78
2015-11-19T00:21:06.227Z,19.87
2015-11-19T00:21:18.664Z,19.78
2015-11-19T00:21:31.024Z,19.68
2015-11-19T00:21:43.367Z,19.68
2015-11-19T00:21:55.711Z,19.78
2015-11-19T00:22:08.058Z,19.68
2015-11-19T00:22:20.433Z,19.78
2015-11-19T00:22:32.120Z,19.87
2015-11-19T00:22:44.495Z,19.97
2015-11-19T00:22:56.839Z,19.78
2015-11-19T00:23:09.202Z,19.78
2015-11-19T00:23:21.577Z,19.78
2015-11-19T00:23:33.952Z,19.68
2015-11-19T00:23:46.327Z,19.68
2015-11-19T00:23:58.717Z,19.78
2015-11-19T00:24:11.080Z,19.78
2015-11-19T00:24:23.455Z,19.78
2015-11-19T00:24:35.830Z,19.78
2015-11-19T00:24:48.189Z,19.78
2015-11-19T00:25:00.533Z,19.97
2015-11-19T00:25:12.160Z,19.68
2015-11-19T00:25:24.582Z,19.87
2015-11-19T00:25:36.925Z,19.87
2015-11-19T00:25:49.269Z,19.78
2015-11-19T00:26:01.613Z,19.78
2015-11-19T00:26:13.960Z,19.87
2015-11-19T00:26:26.319Z,19.78
2015-11-19T00:26:38.663Z,19.78
2015-11-19T00:26:51.006Z,20.25
2015-11-19T00:27:03.366Z,19.59
2015-11-19T00:27:14.993Z,20.16
2015-11-19T00:27:27.352Z,20.16
2015-11-19T00:27:39.712Z,19.97
2015-11-19T00:27:52.071Z,19.97
2015-11-19T00:28:04.430Z,19.97
2015-11-19T00:28:16.824Z,20.06
2015-11-19T00:28:29.261Z,20.06
2015-11-19T00:28:41.621Z,20.25
2015-11-19T00:28:53.996Z,20.35
2015-11-19T00:29:06.386Z,20.25
2015-11-19T00:29:18.764Z,20.25
2015-11-19T00:29:31.124Z,20.25
2015-11-19T00:29:43.499Z,20.25
2015-11-19T00:29:55.843Z,20.35
2015-11-19T00:30:08.175Z,20.25
2015-11-19T00:30:20.521Z,20.16
2015-11-19T00:30:32.865Z,20.16
2015-11-19T00:30:45.350Z,20.35
2015-11-19T00:30:57.709Z,20.16
2015-11-19T00:31:10.053Z,20.16
2015-11-19T00:31:22.398Z,20.16
2015-11-19T00:31:34.727Z,20.44
2015-11-19T00:31:47.086Z,20.16
2015-11-19T00:31:59.461Z,20.44
2015-11-19T00:32:11.648Z,20.16
2015-11-19T00:32:23.995Z,20.16
2015-11-19T00:32:36.355Z,20.44
2015-11-19T00:32:48.714Z,20.44
2015-11-19T00:33:01.073Z,20.35
2015-11-19T00:33:12.714Z,20.35
2015-11-19T00:33:25.092Z,20.25
2015-11-19T00:33:37.467Z,20.35
2015-11-19T00:33:49.842Z,20.35
2015-11-19T00:34:02.217Z,20.44
2015-11-19T00:34:14.576Z,20.35
2015-11-19T00:34:26.970Z,20.25
2015-11-19T00:34:39.345Z,20.25
2015-11-19T00:34:51.736Z,20.25
2015-11-19T00:35:04.079Z,20.06
2015-11-19T00:35:16.439Z,20.25
2015-11-19T00:35:28.863Z,20.06
2015-11-19T00:35:41.206Z,19.78
2015-11-19T00:35:53.566Z,19.87
2015-11-19T00:36:05.909Z,20.44
2015-11-19T00:36:18.253Z,20.44
2015-11-19T00:36:30.601Z,20.16
2015-11-19T00:36:42.976Z,20.16
2015-11-19T00:36:55.320Z,20.16
2015-11-19T00:37:07.679Z,20.44
2015-11-19T00:37:20.023Z,20.16
2015-11-19T00:37:32.369Z,20.16
2015-11-19T00:37:44.744Z,20.54
2015-11-19T00:37:57.103Z,20.25
2015-11-19T00:38:09.478Z,20.25
2015-11-19T00:38:21.837Z,20.25
2015-11-19T00:38:34.215Z,20.25
2015-11-19T00:38:45.872Z,20.25
2015-11-19T00:38:58.262Z,20.35
2015-11-19T00:39:10.684Z,20.35
2015-11-19T00:39:23.059Z,20.25
2015-11-19T00:39:35.437Z,20.25
2015-11-19T00:39:47.656Z,20.25
2015-11-19T00:40:00.031Z,20.25
2015-11-19T00:40:12.375Z,20.25
2015-11-19T00:40:24.718Z,20.25
2015-11-19T00:40:37.081Z,20.25
2015-11-19T00:40:49.487Z,20.06
2015-11-19T00:41:01.893Z,20.25
2015-11-19T00:41:14.237Z,20.25
2015-11-19T00:41:26.581Z,20.06
2015-11-19T00:41:38.958Z,20.25
2015-11-19T00:41:51.348Z,20.44
2015-11-19T00:42:03.583Z,20.16
2015-11-19T00:42:15.911Z,20.44
2015-11-19T00:42:28.239Z,20.54
2015-11-19T00:42:40.570Z,20.35
2015-11-19T00:42:52.914Z,20.63
2015-11-19T00:43:05.336Z,20.73
2015-11-19T00:43:17.742Z,20.73
2015-11-19T00:43:30.101Z,20.73
2015-11-19T00:43:42.511Z,20.63
2015-11-19T00:43:54.948Z,20.63
2015-11-19T00:44:07.323Z,20.73
2015-11-19T00:44:18.995Z,20.82
2015-11-19T00:44:31.372Z,20.73
2015-11-19T00:44:43.763Z,20.63
2015-11-19T00:44:56.122Z,20.63
2015-11-19T00:45:08.653Z,20.53
2015-11-19T00:45:20.294Z,21.01
2015-11-19T00:45:32.641Z,20.54
2015-11-19T00:45:44.984Z,20.82
2015-11-19T00:45:57.344Z,20.82
2015-11-19T00:46:09.687Z,20.44
2015-11-19T00:46:22.016Z,20.35
2015-11-19T00:46:34.362Z,20.63
2015-11-19T00:46:46.753Z,20.73
2015-11-19T00:46:59.097Z,20.82
2015-11-19T00:47:10.737Z,20.53
2015-11-19T00:47:22.925Z,20.35
2015-11-19T00:47:35.271Z,20.54
2015-11-19T00:47:47.614Z,20.73
2015-11-19T00:47:59.989Z,20.63
2015-11-19T00:48:12.380Z,20.73
2015-11-19T00:48:24.739Z,20.81
2015-11-19T00:48:37.087Z,20.82
2015-11-19T00:48:49.462Z,20.73
2015-11-19T00:49:01.837Z,20.54
2015-11-19T00:49:14.228Z,20.54
2015-11-19T00:49:26.446Z,20.54
2015-11-19T00:49:38.840Z,20.63
2015-11-19T00:49:51.215Z,20.54
2015-11-19T00:50:03.606Z,21.01
2015-11-19T00:50:15.934Z,20.72
2015-11-19T00:50:28.278Z,20.63
2015-11-19T00:50:40.623Z,20.63
2015-11-19T00:50:52.983Z,20.72
2015-11-19T00:51:05.326Z,20.72
2015-11-19T00:51:17.670Z,20.62
2015-11-19T00:51:30.014Z,20.63
2015-11-19T00:51:42.361Z,20.63
2015-11-19T00:51:54.704Z,20.73
2015-11-19T00:52:07.064Z,20.72
2015-11-19T00:52:19.408Z,20.73
2015-11-19T00:52:31.751Z,20.73
2015-11-19T00:52:44.098Z,20.72
2015-11-19T00:52:56.473Z,20.72
2015-11-19T00:53:08.832Z,20.73
2015-11-19T00:53:21.176Z,20.63
2015-11-19T00:53:33.536Z,20.81
2015-11-19T00:53:45.913Z,20.81
2015-11-19T00:53:58.303Z,20.62
2015-11-19T00:54:10.678Z,20.72
2015-11-19T00:54:23.053Z,20.54
2015-11-19T00:54:35.428Z,20.81
2015-11-19T00:54:47.805Z,20.43
2015-11-19T00:55:00.180Z,20.43
2015-11-19T00:55:12.618Z,20.62
2015-11-19T00:55:25.071Z,20.43
2015-11-19T00:55:37.415Z,20.53
2015-11-19T00:55:49.808Z,20.62
2015-11-19T00:56:02.152Z,20.53
2015-11-19T00:56:14.496Z,20.34
2015-11-19T00:56:26.855Z,20.62
2015-11-19T00:56:39.199Z,20.62
2015-11-19T00:56:51.561Z,20.81
2015-11-19T00:57:03.905Z,20.81
2015-11-19T00:57:16.249Z,20.72
2015-11-19T00:57:28.592Z,20.9
2015-11-19T00:57:40.952Z,21
2015-11-19T00:57:53.299Z,21
2015-11-19T00:58:05.658Z,20.72
2015-11-19T00:58:17.299Z,20.81
2015-11-19T00:58:29.658Z,20.72
2015-11-19T00:58:41.720Z,20.9
2015-11-19T00:58:54.130Z,20.81
2015-11-19T00:59:06.536Z,21
2015-11-19T00:59:18.911Z,20.81
2015-11-19T00:59:31.286Z,20.9
2015-11-19T00:59:43.692Z,21.09
2015-11-19T00:59:56.117Z,20.9
2015-11-19T01:00:08.508Z,21.19
2015-11-19T01:00:20.883Z,20.81
2015-11-19T01:00:33.258Z,20.9
2015-11-19T01:00:45.601Z,20.9
2015-11-19T01:00:57.932Z,20.81
2015-11-19T01:01:10.291Z,20.81
2015-11-19T01:01:22.650Z,20.9
2015-11-19T01:01:34.994Z,21.09
2015-11-19T01:01:47.338Z,20.9
2015-11-19T01:01:59.685Z,20.81
2015-11-19T01:02:12.060Z,21
2015-11-19T01:02:24.466Z,20.9
2015-11-19T01:02:36.810Z,21.19
2015-11-19T01:02:49.153Z,21
2015-11-19T01:03:01.516Z,21.19
2015-11-19T01:03:13.859Z,21
2015-11-19T01:03:26.234Z,21.09
2015-11-19T01:03:38.609Z,21.19
2015-11-19T01:03:51.000Z,21
2015-11-19T01:04:03.347Z,20.81
2015-11-19T01:04:15.722Z,20.9
2015-11-19T01:04:28.081Z,20.81
2015-11-19T01:04:40.456Z,20.9
2015-11-19T01:04:52.831Z,20.72
2015-11-19T01:05:05.225Z,20.72
2015-11-19T01:05:17.600Z,20.62
2015-11-19T01:05:29.975Z,21
2015-11-19T01:05:42.350Z,20.9
2015-11-19T01:05:54.694Z,20.9
2015-11-19T01:06:07.055Z,20.72
2015-11-19T01:06:19.383Z,21
2015-11-19T01:06:31.571Z,20.81
2015-11-19T01:06:43.914Z,21
2015-11-19T01:06:56.321Z,21
2015-11-19T01:07:08.667Z,20.9
2015-11-19T01:07:21.011Z,20.9
2015-11-19T01:07:33.636Z,21
2015-11-19T01:07:45.980Z,20.9
2015-11-19T01:07:57.605Z,20.72
2015-11-19T01:08:09.952Z,20.73
2015-11-19T01:08:22.358Z,20.72
2015-11-19T01:08:34.780Z,20.81
2015-11-19T01:08:47.139Z,21
2015-11-19T01:08:59.498Z,20.9
2015-11-19T01:09:11.861Z,21
2015-11-19T01:09:24.236Z,20.72
2015-11-19T01:09:36.595Z,21.01
2015-11-19T01:09:49.095Z,20.9
2015-11-19T01:10:01.470Z,20.9
2015-11-19T01:10:13.864Z,20.9
2015-11-19T01:10:26.239Z,20.9
2015-11-19T01:10:38.661Z,20.9
2015-11-19T01:10:51.098Z,20.9
2015-11-19T01:11:03.442Z,21.19
2015-11-19T01:11:15.788Z,21
2015-11-19T01:11:28.131Z,20.9
2015-11-19T01:11:40.475Z,21
2015-11-19T01:11:52.819Z,20.9
2015-11-19T01:12:05.178Z,20.72
2015-11-19T01:12:17.525Z,20.81
2015-11-19T01:12:29.869Z,20.72
2015-11-19T01:12:42.213Z,20.72
2015-11-19T01:12:54.556Z,20.9
2015-11-19T01:13:06.884Z,21
2015-11-19T01:13:19.230Z,21
2015-11-19T01:13:31.574Z,21
2015-11-19T01:13:43.949Z,21.09
2015-11-19T01:13:56.324Z,20.9
2015-11-19T01:14:08.699Z,21
2015-11-19T01:14:21.077Z,20.82
2015-11-19T01:14:33.452Z,21
2015-11-19T01:14:45.858Z,21
2015-11-19T01:14:58.233Z,21
2015-11-19T01:15:10.608Z,21
2015-11-19T01:15:22.986Z,21.09
2015-11-19T01:15:35.361Z,21
2015-11-19T01:15:47.049Z,20.9
2015-11-19T01:15:59.471Z,21.01
2015-11-19T01:16:11.814Z,21
2015-11-19T01:16:24.161Z,21
2015-11-19T01:16:36.505Z,21
2015-11-19T01:16:48.833Z,21
2015-11-19T01:17:00.505Z,20.92
2015-11-19T01:17:12.833Z,21.09
2015-11-19T01:17:25.180Z,21.09
2015-11-19T01:17:37.508Z,21.19
2015-11-19T01:17:49.867Z,21.19
2015-11-19T01:18:02.258Z,21.09
2015-11-19T01:18:14.633Z,21.09
2015-11-19T01:18:26.980Z,21
2015-11-19T01:18:39.323Z,20.9
2015-11-19T01:18:51.698Z,20.92
2015-11-19T01:19:04.058Z,20.9
2015-11-19T01:19:16.480Z,21.09
2015-11-19T01:19:28.904Z,21.2
2015-11-19T01:19:41.264Z,21.19
2015-11-19T01:19:53.639Z,21.28
2015-11-19T01:20:06.014Z,21
2015-11-19T01:20:18.389Z,21
2015-11-19T01:20:30.766Z,20.9
2015-11-19T01:20:42.985Z,21.19
2015-11-19T01:20:55.375Z,21.19
2015-11-19T01:21:07.750Z,21.09
2015-11-19T01:21:20.125Z,21.19
2015-11-19T01:21:32.456Z,21.39
2015-11-19T01:21:44.800Z,21.38
2015-11-19T01:21:57.144Z,21.2
2015-11-19T01:22:09.488Z,21.19
2015-11-19T01:22:21.831Z,21.3
2015-11-19T01:22:59.865Z,21.19
2015-11-19T01:23:12.286Z,21.38
2015-11-19T01:23:24.615Z,21.38
2015-11-19T01:23:36.961Z,21.47
2015-11-19T01:23:49.336Z,21.38
2015-11-19T01:24:00.977Z,21.47
2015-11-19T01:24:13.336Z,21.47
2015-11-19T01:24:25.680Z,21.47
2015-11-19T01:24:38.026Z,21.47
2015-11-19T01:24:50.464Z,21.47
2015-11-19T01:25:02.839Z,21.57
2015-11-19T01:25:15.214Z,21.38
2015-11-19T01:25:27.589Z,21.66
2015-11-19T01:25:39.982Z,21.38
2015-11-19T01:25:52.310Z,21.47
2015-11-19T01:26:04.748Z,21.57
2015-11-19T01:26:17.092Z,21.66
2015-11-19T01:26:29.435Z,21.47
2015-11-19T01:26:41.765Z,21.57
2015-11-19T01:26:54.124Z,21.47
2015-11-19T01:27:06.468Z,21.38
2015-11-19T01:27:18.812Z,21.47
2015-11-19T01:27:31.156Z,21.47
2015-11-19T01:27:43.486Z,21.38
2015-11-19T01:27:55.861Z,21.47
2015-11-19T01:28:08.252Z,21.47
2015-11-19T01:28:20.596Z,21.38
2015-11-19T01:28:32.941Z,21.47
2015-11-19T01:28:45.301Z,21.38
2015-11-19T01:28:57.676Z,21.38
2015-11-19T01:29:10.082Z,21.28
2015-11-19T01:29:22.441Z,21.38
2015-11-19T01:29:34.798Z,21.19
2015-11-19T01:29:47.188Z,21.28
2015-11-19T01:29:59.563Z,21.19
2015-11-19T01:30:11.954Z,21.19
2015-11-19T01:30:24.329Z,21.19
2015-11-19T01:30:36.700Z,21.28
2015-11-19T01:30:49.075Z,21.28
2015-11-19T01:31:01.465Z,21.28
2015-11-19T01:31:13.825Z,21.47
2015-11-19T01:31:26.169Z,21.38
2015-11-19T01:31:38.493Z,21.38
2015-11-19T01:31:50.883Z,21.38
2015-11-19T01:32:03.305Z,21.38
2015-11-19T01:32:15.649Z,21.47
2015-11-19T01:32:27.993Z,21.28
2015-11-19T01:32:40.334Z,21.39
2015-11-19T01:32:52.694Z,21.28
2015-11-19T01:33:05.038Z,21.28
2015-11-19T01:33:17.366Z,21.47
2015-11-19T01:33:29.725Z,21.47
2015-11-19T01:33:42.065Z,21.38
2015-11-19T01:33:54.424Z,21.38
2015-11-19T01:34:06.799Z,21.39
2015-11-19T01:34:19.174Z,21.28
2015-11-19T01:34:31.580Z,21.28
2015-11-19T01:34:43.940Z,21.47
2015-11-19T01:34:56.315Z,21.48
2015-11-19T01:35:08.690Z,21.58
2015-11-19T01:35:21.065Z,21.48
2015-11-19T01:35:33.455Z,21.57
2015-11-19T01:35:45.128Z,21.47
2015-11-19T01:35:57.503Z,21.38
2015-11-19T01:36:09.878Z,21.47
2015-11-19T01:36:22.253Z,21.57
2015-11-19T01:36:34.613Z,21.57
2015-11-19T01:36:46.942Z,21.57
2015-11-19T01:36:59.286Z,21.28
2015-11-19T01:37:11.629Z,21.28
2015-11-19T01:37:23.989Z,21.28
2015-11-19T01:37:35.662Z,21.38
2015-11-19T01:37:48.021Z,21.19
2015-11-19T01:38:00.365Z,21.19
2015-11-19T01:38:12.708Z,21.19
2015-11-19T01:38:25.068Z,21.09
2015-11-19T01:38:37.413Z,21.19
2015-11-19T01:38:49.803Z,21.38
2015-11-19T01:39:02.163Z,21.19
2015-11-19T01:39:14.522Z,21.38
2015-11-19T01:39:26.881Z,21.28
2015-11-19T01:39:39.274Z,21.09
2015-11-19T01:39:51.633Z,21.19
2015-11-19T01:40:04.008Z,21.19
2015-11-19T01:40:16.227Z,21.19
2015-11-19T01:40:28.665Z,21.28
2015-11-19T01:40:41.042Z,21.38
2015-11-19T01:40:53.432Z,21.38
2015-11-19T01:41:05.807Z,21.57
2015-11-19T01:41:18.151Z,21.38
2015-11-19T01:41:30.495Z,21.38
2015-11-19T01:41:42.872Z,21.38
2015-11-19T01:41:55.215Z,21.47
2015-11-19T01:42:07.575Z,21.48
2015-11-19T01:42:19.919Z,21.66
2015-11-19T01:42:32.262Z,21.47
2015-11-19T01:42:44.608Z,21.47
2015-11-19T01:42:56.967Z,21.57
2015-11-19T01:43:09.311Z,21.38
2015-11-19T01:43:21.655Z,21.48
2015-11-19T01:43:34.124Z,21.47
2015-11-19T01:43:46.469Z,21.58
2015-11-19T01:43:58.844Z,21.38
2015-11-19T01:44:11.204Z,21.39
2015-11-19T01:44:22.844Z,21.38
2015-11-19T01:44:35.188Z,21.47
2015-11-19T01:44:47.565Z,21.38
2015-11-19T01:44:59.956Z,21.47
2015-11-19T01:45:12.346Z,21.38
2015-11-19T01:45:24.706Z,21.38
2015-11-19T01:45:36.378Z,21.38
2015-11-19T01:45:48.755Z,21.47
2015-11-19T01:46:01.161Z,21.47
2015-11-19T01:46:13.505Z,21.38
2015-11-19T01:46:25.958Z,21.38
2015-11-19T01:46:38.286Z,21.47
2015-11-19T01:46:50.492Z,21.38
2015-11-19T01:47:02.836Z,21.48
2015-11-19T01:47:15.180Z,21.57
2015-11-19T01:47:27.523Z,21.38
2015-11-19T01:47:39.726Z,21.47
2015-11-19T01:47:52.088Z,21.57
2015-11-19T01:48:04.432Z,21.57
2015-11-19T01:48:16.791Z,21.57
2015-11-19T01:48:29.150Z,21.47
2015-11-19T01:48:41.494Z,21.28
2015-11-19T01:48:53.872Z,21.38
2015-11-19T01:49:06.231Z,21.38
2015-11-19T01:49:18.591Z,21.47
2015-11-19T01:49:30.278Z,21.38
2015-11-19T01:49:42.669Z,21.38
2015-11-19T01:49:55.077Z,21.57
2015-11-19T01:50:07.452Z,21.57
2015-11-19T01:50:19.827Z,21.47
2015-11-19T01:50:32.202Z,21.38
2015-11-19T01:50:44.640Z,21.47
2015-11-19T01:50:57.080Z,21.28
2015-11-19T01:51:09.455Z,21.38
2015-11-19T01:51:21.830Z,21.09
2015-11-19T01:51:34.174Z,21.19
2015-11-19T01:51:46.518Z,21.09
2015-11-19T01:51:58.896Z,21.47
2015-11-19T01:52:11.255Z,21.47
2015-11-19T01:52:23.599Z,21.66
2015-11-19T01:52:35.927Z,21.76
2015-11-19T01:52:47.552Z,21.57
2015-11-19T01:52:59.883Z,21.76
2015-11-19T01:53:12.227Z,21.47
2015-11-19T01:53:24.571Z,21.76
2015-11-19T01:53:36.930Z,21.85
2015-11-19T01:53:49.321Z,21.85
2015-11-19T01:54:01.683Z,21.85
2015-11-19T01:54:14.058Z,21.85
2015-11-19T01:54:26.402Z,21.85
2015-11-19T01:54:38.761Z,21.95
2015-11-19T01:54:51.136Z,21.95
2015-11-19T01:55:03.561Z,21.85
2015-11-19T01:55:15.967Z,21.76
2015-11-19T01:55:28.342Z,21.95
2015-11-19T01:55:40.717Z,21.85
2015-11-19T01:55:53.139Z,21.95
2015-11-19T01:56:05.579Z,21.95
2015-11-19T01:56:17.938Z,21.95
2015-11-19T01:56:30.297Z,21.85
2015-11-19T01:56:42.625Z,21.85
2015-11-19T01:56:54.985Z,21.85
2015-11-19T01:57:07.363Z,21.85
2015-11-19T01:57:19.707Z,21.95
2015-11-19T01:57:32.066Z,21.85
2015-11-19T01:57:44.410Z,21.85
2015-11-19T01:57:56.035Z,22.14
2015-11-19T01:58:08.380Z,21.95
2015-11-19T01:58:20.740Z,21.95
2015-11-19T01:58:33.068Z,22.04
2015-11-19T01:58:45.412Z,22.04
2015-11-19T01:58:57.755Z,22.04
2015-11-19T01:59:10.118Z,21.76
2015-11-19T01:59:22.508Z,21.95
2015-11-19T01:59:34.852Z,22.14
2015-11-19T01:59:47.212Z,22.04
2015-11-19T01:59:59.571Z,22.04
2015-11-19T02:00:11.949Z,21.85
2015-11-19T02:00:24.324Z,21.85
2015-11-19T02:00:36.683Z,21.95
2015-11-19T02:00:49.074Z,21.95
2015-11-19T02:01:01.418Z,21.85
2015-11-19T02:01:13.749Z,21.76
2015-11-19T02:01:26.093Z,22.04
2015-11-19T02:01:38.436Z,22.04
2015-11-19T02:01:50.780Z,21.95
2015-11-19T02:02:03.124Z,21.95
2015-11-19T02:02:15.548Z,21.95
2015-11-19T02:02:27.923Z,21.95
2015-11-19T02:02:40.266Z,21.95
2015-11-19T02:02:52.610Z,22.04
2015-11-19T02:03:04.938Z,21.95
2015-11-19T02:03:17.301Z,21.95
2015-11-19T02:03:29.644Z,21.66
2015-11-19T02:03:41.988Z,21.85
2015-11-19T02:03:54.348Z,21.85
2015-11-19T02:04:06.707Z,21.85
2015-11-19T02:04:19.054Z,21.95
2015-11-19T02:04:31.429Z,21.95
2015-11-19T02:04:43.788Z,21.85
2015-11-19T02:04:56.163Z,21.95
2015-11-19T02:05:08.538Z,21.85
2015-11-19T02:05:20.932Z,21.95
2015-11-19T02:05:33.307Z,21.95
2015-11-19T02:05:45.682Z,21.66
2015-11-19T02:05:58.088Z,21.95
2015-11-19T02:06:10.432Z,21.85
2015-11-19T02:06:22.763Z,22.23
2015-11-19T02:06:35.122Z,21.95
2015-11-19T02:06:47.450Z,22.04
2015-11-19T02:06:59.825Z,22.04
2015-11-19T02:07:12.185Z,22.04
2015-11-19T02:07:24.530Z,22.14
2015-11-19T02:07:36.859Z,22.14
2015-11-19T02:07:49.218Z,22.23
2015-11-19T02:08:01.577Z,21.95
2015-11-19T02:08:13.937Z,22.23
2015-11-19T02:08:26.283Z,22.04
2015-11-19T02:08:38.627Z,22.04
2015-11-19T02:08:51.018Z,22.04
2015-11-19T02:09:03.377Z,22.14
2015-11-19T02:09:15.737Z,22.14
2015-11-19T02:09:28.099Z,22.04
2015-11-19T02:09:40.458Z,22.04
2015-11-19T02:09:52.833Z,22.14
2015-11-19T02:10:05.224Z,22.14
2015-11-19T02:10:17.615Z,22.14
2015-11-19T02:10:29.976Z,22.14
2015-11-19T02:10:42.320Z,22.04
2015-11-19T02:10:54.663Z,22.14
2015-11-19T02:11:07.023Z,22.23
2015-11-19T02:11:19.413Z,21.95
2015-11-19T02:11:31.760Z,22.14
2015-11-19T02:11:44.104Z,22.04
2015-11-19T02:11:56.448Z,22.23
2015-11-19T02:12:08.791Z,22.33
2015-11-19T02:12:21.182Z,22.42
2015-11-19T02:12:33.576Z,22.52
2015-11-19T02:12:45.919Z,22.33
2015-11-19T02:12:58.263Z,22.23
2015-11-19T02:13:10.623Z,22.23
2015-11-19T02:13:22.982Z,22.14
2015-11-19T02:13:35.343Z,21.95
2015-11-19T02:13:47.687Z,22.04
2015-11-19T02:13:59.375Z,22.23
2015-11-19T02:14:11.828Z,22.14
2015-11-19T02:14:24.203Z,22.04
2015-11-19T02:14:36.581Z,22.14
2015-11-19T02:14:48.956Z,22.04
2015-11-19T02:15:01.331Z,22.04
2015-11-19T02:15:13.549Z,22.04
2015-11-19T02:15:26.018Z,22.04
2015-11-19T02:15:38.381Z,22.23
2015-11-19T02:15:50.724Z,22.04
2015-11-19T02:16:03.084Z,22.04
2015-11-19T02:16:15.443Z,22.14
2015-11-19T02:16:27.818Z,22.14
2015-11-19T02:16:40.165Z,22.23
2015-11-19T02:16:52.509Z,22.04
2015-11-19T02:17:04.868Z,22.04
2015-11-19T02:17:17.212Z,22.14
2015-11-19T02:17:29.540Z,22.14
2015-11-19T02:17:41.918Z,22.14
2015-11-19T02:17:54.262Z,22.14
2015-11-19T02:18:06.605Z,22.14
2015-11-19T02:18:18.965Z,22.04
2015-11-19T02:18:31.324Z,22.14
2015-11-19T02:18:43.686Z,22.04
2015-11-19T02:18:56.046Z,22.14
2015-11-19T02:19:08.405Z,22.14
2015-11-19T02:19:20.780Z,22.04
2015-11-19T02:19:33.155Z,22.04
2015-11-19T02:19:45.563Z,22.04
2015-11-19T02:19:57.923Z,21.95
2015-11-19T02:20:10.313Z,21.95
2015-11-19T02:20:22.688Z,21.95
2015-11-19T02:20:35.079Z,21.95
2015-11-19T02:20:47.456Z,22.14
2015-11-19T02:20:59.831Z,22.14
2015-11-19T02:21:12.190Z,21.85
2015-11-19T02:21:24.534Z,21.85
2015-11-19T02:21:36.882Z,22.04
2015-11-19T02:21:49.226Z,22.23
2015-11-19T02:22:01.569Z,22.23
2015-11-19T02:22:13.898Z,22.23
2015-11-19T02:22:25.538Z,22.33
2015-11-19T02:22:37.885Z,22.42
2015-11-19T02:22:50.229Z,22.52
2015-11-19T02:23:02.432Z,22.33
2015-11-19T02:23:14.776Z,22.42
2015-11-19T02:23:27.135Z,22.23
2015-11-19T02:23:39.496Z,22.33
2015-11-19T02:23:51.903Z,22.33
2015-11-19T02:24:04.324Z,22.14
2015-11-19T02:24:16.715Z,22.52
2015-11-19T02:24:29.090Z,22.33
2015-11-19T02:24:41.468Z,22.42
2015-11-19T02:24:53.843Z,22.33
2015-11-19T02:25:06.218Z,22.33
2015-11-19T02:25:18.609Z,22.61
2015-11-19T02:25:30.968Z,22.52
2015-11-19T02:25:43.377Z,22.52
2015-11-19T02:25:55.721Z,22.42
2015-11-19T02:26:08.065Z,22.42
2015-11-19T02:26:20.409Z,22.33
2015-11-19T02:26:32.752Z,22.61
2015-11-19T02:26:45.099Z,22.61
2015-11-19T02:26:57.458Z,22.61
2015-11-19T02:27:09.833Z,22.04
2015-11-19T02:27:22.208Z,22.42
2015-11-19T02:27:34.552Z,22.42
2015-11-19T02:27:46.898Z,22.23
2015-11-19T02:27:59.242Z,22.42
2015-11-19T02:28:11.585Z,22.52
2015-11-19T02:28:23.914Z,22.52
2015-11-19T02:28:36.273Z,22.61
2015-11-19T02:28:48.635Z,22.61
2015-11-19T02:29:00.995Z,22.52
2015-11-19T02:29:13.338Z,22.61
2015-11-19T02:29:25.682Z,22.33
2015-11-19T02:29:37.323Z,22.23
2015-11-19T02:29:49.684Z,22.04
2015-11-19T02:30:02.075Z,22.14
2015-11-19T02:30:14.434Z,22.04
2015-11-19T02:30:26.809Z,22.04
2015-11-19T02:30:39.231Z,22.04
2015-11-19T02:30:51.579Z,22.23
2015-11-19T02:31:03.923Z,22.14
2015-11-19T02:31:16.282Z,22.04
2015-11-19T02:31:28.610Z,22.14
2015-11-19T02:31:40.969Z,22.14
2015-11-19T02:31:53.331Z,22.14
2015-11-19T02:32:05.690Z,21.95
2015-11-19T02:32:18.034Z,22.14
2015-11-19T02:32:30.378Z,22.14
2015-11-19T02:32:42.737Z,22.14
2015-11-19T02:32:55.099Z,22.04
2015-11-19T02:33:07.428Z,21.85
2015-11-19T02:33:19.771Z,22.14
2015-11-19T02:33:32.146Z,22.14
2015-11-19T02:33:44.506Z,22.23
2015-11-19T02:33:56.165Z,21.95
2015-11-19T02:34:08.618Z,22.33
2015-11-19T02:34:20.962Z,22.52
2015-11-19T02:34:33.337Z,22.43
2015-11-19T02:34:45.712Z,22.33
2015-11-19T02:34:58.090Z,22.42
2015-11-19T02:35:10.324Z,22.33
2015-11-19T02:35:22.699Z,22.42
2015-11-19T02:35:34.355Z,22.23
2015-11-19T02:35:46.809Z,22.23
2015-11-19T02:35:59.171Z,22.52
2015-11-19T02:36:11.515Z,22.62
2015-11-19T02:36:23.858Z,22.52
2015-11-19T02:36:36.187Z,22.61
2015-11-19T02:36:48.530Z,22.52
2015-11-19T02:37:00.970Z,22.42
2015-11-19T02:37:13.392Z,22.33
2015-11-19T02:37:25.735Z,22.23
2015-11-19T02:37:38.032Z,22.42
2015-11-19T02:37:50.376Z,22.43
2015-11-19T02:38:02.784Z,22.42
2015-11-19T02:38:15.253Z,22.61
2015-11-19T02:38:27.597Z,22.33
2015-11-19T02:38:39.956Z,22.52
2015-11-19T02:38:52.300Z,22.42
2015-11-19T02:39:04.648Z,22.52
2015-11-19T02:39:17.038Z,22.42
2015-11-19T02:39:29.538Z,22.52
2015-11-19T02:39:41.898Z,22.52
2015-11-19T02:39:54.366Z,22.61
2015-11-19T02:40:06.868Z,22.33
2015-11-19T02:40:19.306Z,22.33